sensor_id;sensor_type;location;lat;lon;timestamp;temperature;humidity
66722;SHT31;53633;49.932;10.884;2022-12-11T00:00:10;-2.00;92.97
66722;SHT31;53633;49.932;10.884;2022-12-11T00:02:37;-2.05;92.91
66722;SHT31;53633;49.932;10.884;2022-12-11T00:05:04;-2.02;92.95
66722;SHT31;53633;49.932;10.884;2022-12-11T00:07:32;-2.03;92.96
66722;SHT31;53633;49.932;10.884;2022-12-11T00:09:59;-2.02;93.00
66722;SHT31;53633;49.932;10.884;2022-12-11T00:12:26;-2.02;92.90
66722;SHT31;53633;49.932;10.884;2022-12-11T00:14:56;-2.03;92.92
66722;SHT31;53633;49.932;10.884;2022-12-11T00:17:22;-1.88;92.79
66722;SHT31;53633;49.932;10.884;2022-12-11T00:19:49;-1.88;92.70
66722;SHT31;53633;49.932;10.884;2022-12-11T00:22:16;-1.88;92.74
66722;SHT31;53633;49.932;10.884;2022-12-11T00:24:42;-1.90;92.48
66722;SHT31;53633;49.932;10.884;2022-12-11T00:27:09;-1.92;92.25
66722;SHT31;53633;49.932;10.884;2022-12-11T00:29:35;-1.89;92.68
66722;SHT31;53633;49.932;10.884;2022-12-11T00:32:04;-1.77;92.19
66722;SHT31;53633;49.932;10.884;2022-12-11T00:34:30;-1.78;92.07
66722;SHT31;53633;49.932;10.884;2022-12-11T00:36:57;-1.81;92.21
66722;SHT31;53633;49.932;10.884;2022-12-11T00:39:24;-1.81;91.66
66722;SHT31;53633;49.932;10.884;2022-12-11T00:41:50;-1.90;91.89
66722;SHT31;53633;49.932;10.884;2022-12-11T00:44:17;-2.00;92.00
66722;SHT31;53633;49.932;10.884;2022-12-11T00:46:43;-2.11;91.27
66722;SHT31;53633;49.932;10.884;2022-12-11T00:49:11;-2.34;91.24
66722;SHT31;53633;49.932;10.884;2022-12-11T00:51:38;-2.38;91.49
66722;SHT31;53633;49.932;10.884;2022-12-11T00:54:05;-2.47;92.12
66722;SHT31;53633;49.932;10.884;2022-12-11T00:56:31;-2.44;93.44
66722;SHT31;53633;49.932;10.884;2022-12-11T00:58:58;-2.41;92.82
66722;SHT31;53633;49.932;10.884;2022-12-11T01:01:24;-2.48;92.63
66722;SHT31;53633;49.932;10.884;2022-12-11T01:03:52;-2.44;93.19
66722;SHT31;53633;49.932;10.884;2022-12-11T01:06:22;-2.30;93.74
66722;SHT31;53633;49.932;10.884;2022-12-11T01:08:49;-2.29;93.44
66722;SHT31;53633;49.932;10.884;2022-12-11T01:11:16;-2.27;92.74
66722;SHT31;53633;49.932;10.884;2022-12-11T01:13:43;-2.34;92.97
66722;SHT31;53633;49.932;10.884;2022-12-11T01:16:12;-2.27;93.27
66722;SHT31;53633;49.932;10.884;2022-12-11T01:18:40;-2.32;92.08
66722;SHT31;53633;49.932;10.884;2022-12-11T01:21:07;-2.38;92.10
66722;SHT31;53633;49.932;10.884;2022-12-11T01:23:36;-2.40;92.91
66722;SHT31;53633;49.932;10.884;2022-12-11T01:26:04;-2.43;93.20
66722;SHT31;53633;49.932;10.884;2022-12-11T01:28:31;-2.48;93.24
66722;SHT31;53633;49.932;10.884;2022-12-11T01:30:58;-2.53;93.60
66722;SHT31;53633;49.932;10.884;2022-12-11T01:33:25;-2.58;93.68
66722;SHT31;53633;49.932;10.884;2022-12-11T01:35:51;-2.66;93.19
66722;SHT31;53633;49.932;10.884;2022-12-11T01:38:18;-2.66;93.78
66722;SHT31;53633;49.932;10.884;2022-12-11T01:40:46;-2.79;92.39
66722;SHT31;53633;49.932;10.884;2022-12-11T01:43:19;-2.82;93.97
66722;SHT31;53633;49.932;10.884;2022-12-11T01:45:47;-2.76;94.38
66722;SHT31;53633;49.932;10.884;2022-12-11T01:48:17;-2.81;93.08
66722;SHT31;53633;49.932;10.884;2022-12-11T01:50:47;-2.88;93.46
66722;SHT31;53633;49.932;10.884;2022-12-11T01:53:18;-2.79;93.84
66722;SHT31;53633;49.932;10.884;2022-12-11T01:55:48;-2.79;93.87
66722;SHT31;53633;49.932;10.884;2022-12-11T01:58:17;-2.83;92.24
66722;SHT31;53633;49.932;10.884;2022-12-11T02:00:45;-2.85;93.11
66722;SHT31;53633;49.932;10.884;2022-12-11T02:03:12;-2.74;93.80
66722;SHT31;53633;49.932;10.884;2022-12-11T02:05:38;-2.64;93.76
66722;SHT31;53633;49.932;10.884;2022-12-11T02:08:07;-2.58;93.41
66722;SHT31;53633;49.932;10.884;2022-12-11T02:10:57;-2.43;93.51
66722;SHT31;53633;49.932;10.884;2022-12-11T02:13:31;-2.32;93.21
66722;SHT31;53633;49.932;10.884;2022-12-11T02:16:04;-2.19;92.51
66722;SHT31;53633;49.932;10.884;2022-12-11T02:18:35;-2.26;92.53
66722;SHT31;53633;49.932;10.884;2022-12-11T02:21:08;-2.33;92.64
66722;SHT31;53633;49.932;10.884;2022-12-11T02:24:03;-2.36;92.47
66722;SHT31;53633;49.932;10.884;2022-12-11T02:29:30;-2.62;93.18
66722;SHT31;53633;49.932;10.884;2022-12-11T02:32:02;-2.74;93.40
66722;SHT31;53633;49.932;10.884;2022-12-11T02:34:35;-2.72;93.75
66722;SHT31;53633;49.932;10.884;2022-12-11T02:37:05;-2.58;93.70
66722;SHT31;53633;49.932;10.884;2022-12-11T02:39:37;-2.58;92.71
66722;SHT31;53633;49.932;10.884;2022-12-11T02:42:06;-2.60;92.74
66722;SHT31;53633;49.932;10.884;2022-12-11T02:44:36;-2.65;93.29
66722;SHT31;53633;49.932;10.884;2022-12-11T02:47:09;-2.55;93.49
66722;SHT31;53633;49.932;10.884;2022-12-11T02:49:39;-2.43;93.34
66722;SHT31;53633;49.932;10.884;2022-12-11T02:52:10;-2.36;92.86
66722;SHT31;53633;49.932;10.884;2022-12-11T02:54:38;-2.25;92.63
66722;SHT31;53633;49.932;10.884;2022-12-11T02:57:10;-2.27;92.50
66722;SHT31;53633;49.932;10.884;2022-12-11T02:59:41;-2.33;92.41
66722;SHT31;53633;49.932;10.884;2022-12-11T03:02:08;-2.36;92.34
66722;SHT31;53633;49.932;10.884;2022-12-11T03:04:36;-2.41;92.37
66722;SHT31;53633;49.932;10.884;2022-12-11T03:07:07;-2.53;91.74
66722;SHT31;53633;49.932;10.884;2022-12-11T03:09:35;-2.50;92.57
66722;SHT31;53633;49.932;10.884;2022-12-11T03:12:01;-2.50;92.63
66722;SHT31;53633;49.932;10.884;2022-12-11T03:14:28;-2.41;92.55
66722;SHT31;53633;49.932;10.884;2022-12-11T03:17:02;-2.44;92.23
66722;SHT31;53633;49.932;10.884;2022-12-11T03:19:34;-2.32;92.07
66722;SHT31;53633;49.932;10.884;2022-12-11T03:22:08;-2.33;91.87
66722;SHT31;53633;49.932;10.884;2022-12-11T03:24:39;-2.32;92.01
66722;SHT31;53633;49.932;10.884;2022-12-11T03:27:13;-2.27;92.00
66722;SHT31;53633;49.932;10.884;2022-12-11T03:29:47;-2.25;91.91
66722;SHT31;53633;49.932;10.884;2022-12-11T03:32:19;-2.30;91.88
66722;SHT31;53633;49.932;10.884;2022-12-11T03:34:49;-2.30;91.87
66722;SHT31;53633;49.932;10.884;2022-12-11T03:37:24;-2.29;92.19
66722;SHT31;53633;49.932;10.884;2022-12-11T03:39:57;-2.27;92.12
66722;SHT31;53633;49.932;10.884;2022-12-11T03:42:25;-2.32;92.05
66722;SHT31;53633;49.932;10.884;2022-12-11T03:44:53;-2.32;92.23
66722;SHT31;53633;49.932;10.884;2022-12-11T03:47:23;-2.33;92.26
66722;SHT31;53633;49.932;10.884;2022-12-11T03:49:52;-2.29;92.30
66722;SHT31;53633;49.932;10.884;2022-12-11T03:52:19;-2.37;92.36
66722;SHT31;53633;49.932;10.884;2022-12-11T03:54:49;-2.38;92.30
66722;SHT31;53633;49.932;10.884;2022-12-11T03:57:19;-2.37;92.51
66722;SHT31;53633;49.932;10.884;2022-12-11T03:59:47;-2.34;92.07
66722;SHT31;53633;49.932;10.884;2022-12-11T04:02:15;-2.43;91.89
66722;SHT31;53633;49.932;10.884;2022-12-11T04:04:43;-2.48;92.18
66722;SHT31;53633;49.932;10.884;2022-12-11T04:07:09;-2.47;92.27
66722;SHT31;53633;49.932;10.884;2022-12-11T04:09:36;-2.30;91.61
66722;SHT31;53633;49.932;10.884;2022-12-11T04:12:03;-2.36;91.49
66722;SHT31;53633;49.932;10.884;2022-12-11T04:14:29;-2.48;91.48
66722;SHT31;53633;49.932;10.884;2022-12-11T04:16:57;-2.58;91.85
66722;SHT31;53633;49.932;10.884;2022-12-11T04:19:24;-2.64;92.39
66722;SHT31;53633;49.932;10.884;2022-12-11T04:21:53;-2.61;92.55
66722;SHT31;53633;49.932;10.884;2022-12-11T04:24:19;-2.62;92.66
66722;SHT31;53633;49.932;10.884;2022-12-11T04:26:46;-2.61;92.97
66722;SHT31;53633;49.932;10.884;2022-12-11T04:29:13;-2.60;93.09
66722;SHT31;53633;49.932;10.884;2022-12-11T04:31:40;-2.58;93.13
66722;SHT31;53633;49.932;10.884;2022-12-11T04:34:07;-2.51;93.13
66722;SHT31;53633;49.932;10.884;2022-12-11T04:36:34;-2.48;93.08
66722;SHT31;53633;49.932;10.884;2022-12-11T04:39:03;-2.44;92.90
66722;SHT31;53633;49.932;10.884;2022-12-11T04:41:30;-2.41;92.94
66722;SHT31;53633;49.932;10.884;2022-12-11T04:43:56;-2.37;92.80
66722;SHT31;53633;49.932;10.884;2022-12-11T04:46:23;-2.33;92.82
66722;SHT31;53633;49.932;10.884;2022-12-11T04:48:51;-2.30;92.69
66722;SHT31;53633;49.932;10.884;2022-12-11T04:51:23;-2.26;92.58
66722;SHT31;53633;49.932;10.884;2022-12-11T04:53:50;-2.19;92.17
66722;SHT31;53633;49.932;10.884;2022-12-11T04:56:18;-2.14;92.08
66722;SHT31;53633;49.932;10.884;2022-12-11T04:58:45;-2.14;91.94
66722;SHT31;53633;49.932;10.884;2022-12-11T05:01:14;-2.10;91.87
66722;SHT31;53633;49.932;10.884;2022-12-11T05:03:41;-2.09;91.63
66722;SHT31;53633;49.932;10.884;2022-12-11T05:06:09;-2.05;91.38
66722;SHT31;53633;49.932;10.884;2022-12-11T05:08:37;-2.02;91.30
66722;SHT31;53633;49.932;10.884;2022-12-11T05:11:05;-2.03;91.46
66722;SHT31;53633;49.932;10.884;2022-12-11T05:13:34;-2.00;91.63
66722;SHT31;53633;49.932;10.884;2022-12-11T05:16:03;-1.95;91.54
66722;SHT31;53633;49.932;10.884;2022-12-11T05:18:30;-1.86;91.47
66722;SHT31;53633;49.932;10.884;2022-12-11T05:20:58;-1.85;91.13
66722;SHT31;53633;49.932;10.884;2022-12-11T05:23:25;-1.86;91.20
66722;SHT31;53633;49.932;10.884;2022-12-11T05:25:52;-1.85;91.13
66722;SHT31;53633;49.932;10.884;2022-12-11T05:28:20;-1.86;91.32
66722;SHT31;53633;49.932;10.884;2022-12-11T05:30:48;-1.95;91.40
66722;SHT31;53633;49.932;10.884;2022-12-11T05:33:15;-2.03;91.59
66722;SHT31;53633;49.932;10.884;2022-12-11T05:35:45;-2.06;91.69
66722;SHT31;53633;49.932;10.884;2022-12-11T05:38:12;-2.11;91.82
66722;SHT31;53633;49.932;10.884;2022-12-11T05:40:39;-2.13;92.17
66722;SHT31;53633;49.932;10.884;2022-12-11T05:43:05;-2.05;92.18
66722;SHT31;53633;49.932;10.884;2022-12-11T05:45:32;-1.98;91.96
66722;SHT31;53633;49.932;10.884;2022-12-11T05:48:01;-1.83;91.48
66722;SHT31;53633;49.932;10.884;2022-12-11T05:50:28;-1.82;91.41
66722;SHT31;53633;49.932;10.884;2022-12-11T05:52:54;-1.79;91.36
66722;SHT31;53633;49.932;10.884;2022-12-11T05:55:21;-1.82;91.32
66722;SHT31;53633;49.932;10.884;2022-12-11T05:57:48;-1.77;91.42
66722;SHT31;53633;49.932;10.884;2022-12-11T06:00:14;-1.71;91.16
66722;SHT31;53633;49.932;10.884;2022-12-11T06:02:44;-1.71;91.16
66722;SHT31;53633;49.932;10.884;2022-12-11T06:05:12;-1.74;91.25
66722;SHT31;53633;49.932;10.884;2022-12-11T06:07:39;-1.77;91.45
66722;SHT31;53633;49.932;10.884;2022-12-11T06:10:06;-1.74;91.55
66722;SHT31;53633;49.932;10.884;2022-12-11T06:12:33;-1.75;91.63
66722;SHT31;53633;49.932;10.884;2022-12-11T06:14:59;-1.75;91.75
66722;SHT31;53633;49.932;10.884;2022-12-11T06:17:26;-1.69;91.88
66722;SHT31;53633;49.932;10.884;2022-12-11T06:19:53;-1.68;91.73
66722;SHT31;53633;49.932;10.884;2022-12-11T06:22:21;-1.64;91.67
66722;SHT31;53633;49.932;10.884;2022-12-11T06:24:47;-1.64;91.70
66722;SHT31;53633;49.932;10.884;2022-12-11T06:27:14;-1.51;91.50
66722;SHT31;53633;49.932;10.884;2022-12-11T06:29:40;-1.37;91.04
66722;SHT31;53633;49.932;10.884;2022-12-11T06:32:07;-1.17;90.37
66722;SHT31;53633;49.932;10.884;2022-12-11T06:34:34;-1.12;90.20
66722;SHT31;53633;49.932;10.884;2022-12-11T06:37:00;-1.09;89.97
66722;SHT31;53633;49.932;10.884;2022-12-11T06:39:29;-1.19;90.21
66722;SHT31;53633;49.932;10.884;2022-12-11T06:41:55;-1.16;90.24
66722;SHT31;53633;49.932;10.884;2022-12-11T06:44:22;-1.24;90.38
66722;SHT31;53633;49.932;10.884;2022-12-11T06:46:49;-1.30;90.53
66722;SHT31;53633;49.932;10.884;2022-12-11T06:49:15;-1.23;90.23
66722;SHT31;53633;49.932;10.884;2022-12-11T06:51:42;-1.36;90.26
66722;SHT31;53633;49.932;10.884;2022-12-11T06:54:09;-1.48;90.63
66722;SHT31;53633;49.932;10.884;2022-12-11T06:56:37;-1.52;91.04
66722;SHT31;53633;49.932;10.884;2022-12-11T06:59:03;-1.61;91.44
66722;SHT31;53633;49.932;10.884;2022-12-11T07:01:33;-1.78;91.91
66722;SHT31;53633;49.932;10.884;2022-12-11T07:03:59;-1.89;92.30
66722;SHT31;53633;49.932;10.884;2022-12-11T07:06:27;-1.92;92.95
66722;SHT31;53633;49.932;10.884;2022-12-11T07:08:54;-2.00;92.92
66722;SHT31;53633;49.932;10.884;2022-12-11T07:11:21;-2.00;93.10
66722;SHT31;53633;49.932;10.884;2022-12-11T07:13:49;-2.02;93.13
66722;SHT31;53633;49.932;10.884;2022-12-11T07:16:16;-2.02;93.09
66722;SHT31;53633;49.932;10.884;2022-12-11T07:18:46;-1.95;93.09
66722;SHT31;53633;49.932;10.884;2022-12-11T07:21:13;-1.89;93.06
66722;SHT31;53633;49.932;10.884;2022-12-11T07:23:40;-1.88;92.77
66722;SHT31;53633;49.932;10.884;2022-12-11T07:26:09;-1.82;92.75
66722;SHT31;53633;49.932;10.884;2022-12-11T07:28:36;-1.81;92.66
66722;SHT31;53633;49.932;10.884;2022-12-11T07:31:09;-1.79;92.60
66722;SHT31;53633;49.932;10.884;2022-12-11T07:33:36;-1.77;92.60
66722;SHT31;53633;49.932;10.884;2022-12-11T07:36:04;-1.71;92.28
66722;SHT31;53633;49.932;10.884;2022-12-11T07:38:31;-1.68;91.83
66722;SHT31;53633;49.932;10.884;2022-12-11T07:40:59;-1.55;91.57
66722;SHT31;53633;49.932;10.884;2022-12-11T07:43:26;-1.44;90.49
66722;SHT31;53633;49.932;10.884;2022-12-11T07:45:53;-1.52;90.77
66722;SHT31;53633;49.932;10.884;2022-12-11T07:48:21;-1.50;91.03
66722;SHT31;53633;49.932;10.884;2022-12-11T07:50:48;-1.41;90.88
66722;SHT31;53633;49.932;10.884;2022-12-11T07:53:14;-1.37;90.68
66722;SHT31;53633;49.932;10.884;2022-12-11T07:55:41;-1.29;90.59
66722;SHT31;53633;49.932;10.884;2022-12-11T07:58:07;-1.16;90.03
66722;SHT31;53633;49.932;10.884;2022-12-11T08:00:34;-1.04;89.63
66722;SHT31;53633;49.932;10.884;2022-12-11T08:03:01;-0.88;88.78
66722;SHT31;53633;49.932;10.884;2022-12-11T08:05:29;-0.85;88.45
66722;SHT31;53633;49.932;10.884;2022-12-11T08:07:56;-0.89;88.64
66722;SHT31;53633;49.932;10.884;2022-12-11T08:10:22;-0.85;88.42
66722;SHT31;53633;49.932;10.884;2022-12-11T08:12:49;-0.81;88.27
66722;SHT31;53633;49.932;10.884;2022-12-11T08:15:16;-0.75;88.14
66722;SHT31;53633;49.932;10.884;2022-12-11T08:17:42;-0.76;88.03
66722;SHT31;53633;49.932;10.884;2022-12-11T08:20:09;-0.64;87.84
66722;SHT31;53633;49.932;10.884;2022-12-11T08:22:37;-0.68;87.82
66722;SHT31;53633;49.932;10.884;2022-12-11T08:25:05;-0.66;87.73
66722;SHT31;53633;49.932;10.884;2022-12-11T08:27:31;-0.68;88.02
66722;SHT31;53633;49.932;10.884;2022-12-11T08:29:58;-0.66;87.94
66722;SHT31;53633;49.932;10.884;2022-12-11T08:32:25;-0.53;87.24
66722;SHT31;53633;49.932;10.884;2022-12-11T08:34:51;-0.54;87.20
66722;SHT31;53633;49.932;10.884;2022-12-11T08:37:18;-0.54;87.06
66722;SHT31;53633;49.932;10.884;2022-12-11T08:39:46;-0.54;87.28
66722;SHT31;53633;49.932;10.884;2022-12-11T08:42:13;-0.47;86.67
66722;SHT31;53633;49.932;10.884;2022-12-11T08:44:39;-0.40;86.48
66722;SHT31;53633;49.932;10.884;2022-12-11T08:47:06;-0.34;85.66
66722;SHT31;53633;49.932;10.884;2022-12-11T08:49:33;-0.31;85.83
66722;SHT31;53633;49.932;10.884;2022-12-11T08:52:01;-0.30;85.65
66722;SHT31;53633;49.932;10.884;2022-12-11T08:54:28;-0.30;85.70
66722;SHT31;53633;49.932;10.884;2022-12-11T08:56:56;-0.30;85.69
66722;SHT31;53633;49.932;10.884;2022-12-11T08:59:24;-0.26;85.65
66722;SHT31;53633;49.932;10.884;2022-12-11T09:01:51;-0.20;85.26
66722;SHT31;53633;49.932;10.884;2022-12-11T09:04:19;-0.20;85.32
66722;SHT31;53633;49.932;10.884;2022-12-11T09:06:45;-0.23;85.31
66722;SHT31;53633;49.932;10.884;2022-12-11T09:09:12;-0.20;85.28
66722;SHT31;53633;49.932;10.884;2022-12-11T09:11:39;-0.19;85.20
66722;SHT31;53633;49.932;10.884;2022-12-11T09:14:07;-0.09;85.14
66722;SHT31;53633;49.932;10.884;2022-12-11T09:16:34;-0.09;84.92
66722;SHT31;53633;49.932;10.884;2022-12-11T09:19:02;-0.10;85.13
66722;SHT31;53633;49.932;10.884;2022-12-11T09:21:29;-0.07;85.08
66722;SHT31;53633;49.932;10.884;2022-12-11T09:23:58;0.04;84.45
66722;SHT31;53633;49.932;10.884;2022-12-11T09:26:26;0.05;84.20
66722;SHT31;53633;49.932;10.884;2022-12-11T09:28:53;0.01;84.47
66722;SHT31;53633;49.932;10.884;2022-12-11T09:31:23;-0.06;84.80
66722;SHT31;53633;49.932;10.884;2022-12-11T09:33:53;-0.03;84.45
66722;SHT31;53633;49.932;10.884;2022-12-11T09:36:21;-0.02;84.70
66722;SHT31;53633;49.932;10.884;2022-12-11T09:38:48;0.01;84.97
66722;SHT31;53633;49.932;10.884;2022-12-11T09:41:35;0.25;83.72
66722;SHT31;53633;49.932;10.884;2022-12-11T09:44:14;0.41;83.35
66722;SHT31;53633;49.932;10.884;2022-12-11T09:46:43;0.50;82.95
66722;SHT31;53633;49.932;10.884;2022-12-11T09:49:21;0.67;82.44
66722;SHT31;53633;49.932;10.884;2022-12-11T09:51:51;0.77;81.41
66722;SHT31;53633;49.932;10.884;2022-12-11T09:54:21;0.86;80.76
66722;SHT31;53633;49.932;10.884;2022-12-11T09:56:52;0.87;80.51
66722;SHT31;53633;49.932;10.884;2022-12-11T09:59:28;0.97;80.06
66722;SHT31;53633;49.932;10.884;2022-12-11T10:02:02;1.03;79.75
66722;SHT31;53633;49.932;10.884;2022-12-11T10:04:45;1.00;78.78
66722;SHT31;53633;49.932;10.884;2022-12-11T10:07:22;1.00;78.75
66722;SHT31;53633;49.932;10.884;2022-12-11T10:09:58;0.91;78.85
66722;SHT31;53633;49.932;10.884;2022-12-11T10:12:36;0.88;79.78
66722;SHT31;53633;49.932;10.884;2022-12-11T10:15:16;0.87;79.69
66722;SHT31;53633;49.932;10.884;2022-12-11T10:17:46;0.86;78.40
66722;SHT31;53633;49.932;10.884;2022-12-11T10:20:18;0.88;79.48
66722;SHT31;53633;49.932;10.884;2022-12-11T10:22:47;0.93;79.83
66722;SHT31;53633;49.932;10.884;2022-12-11T10:25:19;0.98;80.07
66722;SHT31;53633;49.932;10.884;2022-12-11T10:27:46;0.91;80.62
66722;SHT31;53633;49.932;10.884;2022-12-11T10:30:15;0.84;80.58
66722;SHT31;53633;49.932;10.884;2022-12-11T10:32:49;0.84;81.10
66722;SHT31;53633;49.932;10.884;2022-12-11T10:35:26;0.86;80.99
66722;SHT31;53633;49.932;10.884;2022-12-11T10:37:56;0.83;81.01
66722;SHT31;53633;49.932;10.884;2022-12-11T10:40:28;0.84;80.90
66722;SHT31;53633;49.932;10.884;2022-12-11T10:42:56;0.77;81.20
66722;SHT31;53633;49.932;10.884;2022-12-11T10:45:22;0.86;81.10
66722;SHT31;53633;49.932;10.884;2022-12-11T10:48:00;0.87;80.79
66722;SHT31;53633;49.932;10.884;2022-12-11T10:50:27;0.86;80.43
66722;SHT31;53633;49.932;10.884;2022-12-11T10:52:54;0.72;80.77
66722;SHT31;53633;49.932;10.884;2022-12-11T10:55:24;0.75;80.88
66722;SHT31;53633;49.932;10.884;2022-12-11T10:57:58;0.72;80.92
66722;SHT31;53633;49.932;10.884;2022-12-11T11:00:32;0.76;80.20
66722;SHT31;53633;49.932;10.884;2022-12-11T11:03:01;0.65;80.40
66722;SHT31;53633;49.932;10.884;2022-12-11T11:05:30;0.59;80.22
66722;SHT31;53633;49.932;10.884;2022-12-11T11:08:11;0.53;80.49
66722;SHT31;53633;49.932;10.884;2022-12-11T11:10:49;0.55;80.74
66722;SHT31;53633;49.932;10.884;2022-12-11T11:13:16;0.55;80.50
66722;SHT31;53633;49.932;10.884;2022-12-11T11:15:42;0.53;79.92
66722;SHT31;53633;49.932;10.884;2022-12-11T11:18:24;0.46;79.94
66722;SHT31;53633;49.932;10.884;2022-12-11T11:20:52;0.42;80.20
66722;SHT31;53633;49.932;10.884;2022-12-11T11:23:19;0.37;80.05
66722;SHT31;53633;49.932;10.884;2022-12-11T11:25:52;0.33;80.30
66722;SHT31;53633;49.932;10.884;2022-12-11T11:28:23;0.33;80.32
66722;SHT31;53633;49.932;10.884;2022-12-11T11:31:02;0.42;80.52
66722;SHT31;53633;49.932;10.884;2022-12-11T11:33:32;0.44;79.92
66722;SHT31;53633;49.932;10.884;2022-12-11T11:36:01;0.49;79.57
66722;SHT31;53633;49.932;10.884;2022-12-11T11:38:30;0.52;79.55
66722;SHT31;53633;49.932;10.884;2022-12-11T11:41:05;0.59;78.87
66722;SHT31;53633;49.932;10.884;2022-12-11T11:43:43;0.56;78.44
66722;SHT31;53633;49.932;10.884;2022-12-11T11:46:13;0.60;78.43
66722;SHT31;53633;49.932;10.884;2022-12-11T11:48:49;0.65;77.90
66722;SHT31;53633;49.932;10.884;2022-12-11T11:51:23;0.70;77.33
66722;SHT31;53633;49.932;10.884;2022-12-11T11:53:55;0.69;76.51
66722;SHT31;53633;49.932;10.884;2022-12-11T11:56:25;0.66;76.96
66722;SHT31;53633;49.932;10.884;2022-12-11T11:59:10;0.70;76.98
66722;SHT31;53633;49.932;10.884;2022-12-11T12:01:40;0.70;76.40
66722;SHT31;53633;49.932;10.884;2022-12-11T12:04:08;0.76;76.17
66722;SHT31;53633;49.932;10.884;2022-12-11T12:07:05;0.73;75.90
66722;SHT31;53633;49.932;10.884;2022-12-11T12:09:42;0.70;74.73
66722;SHT31;53633;49.932;10.884;2022-12-11T12:12:15;0.69;74.05
66722;SHT31;53633;49.932;10.884;2022-12-11T12:15:05;0.65;74.91
66722;SHT31;53633;49.932;10.884;2022-12-11T12:17:39;0.66;74.51
66722;SHT31;53633;49.932;10.884;2022-12-11T12:20:24;0.67;74.61
66722;SHT31;53633;49.932;10.884;2022-12-11T12:23:02;0.62;75.08
66722;SHT31;53633;49.932;10.884;2022-12-11T12:25:36;0.58;75.32
66722;SHT31;53633;49.932;10.884;2022-12-11T12:28:13;0.58;74.72
66722;SHT31;53633;49.932;10.884;2022-12-11T12:30:48;0.56;75.36
66722;SHT31;53633;49.932;10.884;2022-12-11T12:33:29;0.52;75.55
66722;SHT31;53633;49.932;10.884;2022-12-11T12:36:06;0.59;75.28
66722;SHT31;53633;49.932;10.884;2022-12-11T12:38:48;0.56;75.12
66722;SHT31;53633;49.932;10.884;2022-12-11T12:41:18;0.53;75.86
66722;SHT31;53633;49.932;10.884;2022-12-11T12:44:03;0.52;75.15
66722;SHT31;53633;49.932;10.884;2022-12-11T12:46:43;0.58;74.74
66722;SHT31;53633;49.932;10.884;2022-12-11T12:49:29;0.52;74.15
66722;SHT31;53633;49.932;10.884;2022-12-11T12:51:58;0.56;73.40
66722;SHT31;53633;49.932;10.884;2022-12-11T12:54:26;0.56;73.51
66722;SHT31;53633;49.932;10.884;2022-12-11T12:56:55;0.55;74.69
66722;SHT31;53633;49.932;10.884;2022-12-11T12:59:23;0.48;74.38
66722;SHT31;53633;49.932;10.884;2022-12-11T13:01:52;0.41;74.32
66722;SHT31;53633;49.932;10.884;2022-12-11T13:04:36;0.37;74.59
66722;SHT31;53633;49.932;10.884;2022-12-11T13:07:27;0.50;74.63
66722;SHT31;53633;49.932;10.884;2022-12-11T13:09:57;0.59;74.23
66722;SHT31;53633;49.932;10.884;2022-12-11T13:12:32;0.62;73.64
66722;SHT31;53633;49.932;10.884;2022-12-11T13:14:59;0.79;73.06
66722;SHT31;53633;49.932;10.884;2022-12-11T13:17:35;0.84;72.44
66722;SHT31;53633;49.932;10.884;2022-12-11T13:20:11;0.86;70.94
66722;SHT31;53633;49.932;10.884;2022-12-11T13:22:49;0.84;70.95
66722;SHT31;53633;49.932;10.884;2022-12-11T13:25:24;0.87;71.36
66722;SHT31;53633;49.932;10.884;2022-12-11T13:27:51;0.88;72.06
66722;SHT31;53633;49.932;10.884;2022-12-11T13:30:23;0.79;70.77
66722;SHT31;53633;49.932;10.884;2022-12-11T13:32:59;0.77;71.12
66722;SHT31;53633;49.932;10.884;2022-12-11T13:35:27;0.69;71.33
66722;SHT31;53633;49.932;10.884;2022-12-11T13:38:00;0.66;71.90
66722;SHT31;53633;49.932;10.884;2022-12-11T13:40:35;0.73;70.68
66722;SHT31;53633;49.932;10.884;2022-12-11T13:43:04;0.76;70.93
66722;SHT31;53633;49.932;10.884;2022-12-11T13:45:38;0.73;70.79
66722;SHT31;53633;49.932;10.884;2022-12-11T13:48:16;0.72;70.60
66722;SHT31;53633;49.932;10.884;2022-12-11T13:50:43;0.66;71.33
66722;SHT31;53633;49.932;10.884;2022-12-11T13:53:15;0.69;72.73
66722;SHT31;53633;49.932;10.884;2022-12-11T13:55:42;0.72;74.35
66722;SHT31;53633;49.932;10.884;2022-12-11T13:58:16;0.62;75.31
66722;SHT31;53633;49.932;10.884;2022-12-11T14:00:52;0.55;75.83
66722;SHT31;53633;49.932;10.884;2022-12-11T14:03:21;0.46;76.21
66722;SHT31;53633;49.932;10.884;2022-12-11T14:05:49;0.42;76.66
66722;SHT31;53633;49.932;10.884;2022-12-11T14:08:21;0.33;77.50
66722;SHT31;53633;49.932;10.884;2022-12-11T14:10:51;0.42;77.58
66722;SHT31;53633;49.932;10.884;2022-12-11T14:13:21;0.38;77.67
66722;SHT31;53633;49.932;10.884;2022-12-11T14:15:50;0.32;77.82
66722;SHT31;53633;49.932;10.884;2022-12-11T14:18:22;0.26;77.90
66722;SHT31;53633;49.932;10.884;2022-12-11T14:20:53;0.35;77.76
66722;SHT31;53633;49.932;10.884;2022-12-11T14:23:24;0.41;77.43
66722;SHT31;53633;49.932;10.884;2022-12-11T14:25:51;0.33;78.11
66722;SHT31;53633;49.932;10.884;2022-12-11T14:28:18;0.28;77.95
66722;SHT31;53633;49.932;10.884;2022-12-11T14:30:48;0.25;78.22
66722;SHT31;53633;49.932;10.884;2022-12-11T14:33:16;0.25;78.56
66722;SHT31;53633;49.932;10.884;2022-12-11T14:35:45;0.26;77.88
66722;SHT31;53633;49.932;10.884;2022-12-11T14:38:15;0.24;78.24
66722;SHT31;53633;49.932;10.884;2022-12-11T14:40:46;0.25;78.52
66722;SHT31;53633;49.932;10.884;2022-12-11T14:43:20;0.21;78.51
66722;SHT31;53633;49.932;10.884;2022-12-11T14:45:49;0.26;78.19
66722;SHT31;53633;49.932;10.884;2022-12-11T14:48:21;0.22;78.01
66722;SHT31;53633;49.932;10.884;2022-12-11T14:50:51;0.15;78.56
66722;SHT31;53633;49.932;10.884;2022-12-11T14:53:21;0.18;78.59
66722;SHT31;53633;49.932;10.884;2022-12-11T14:55:50;0.21;78.60
66722;SHT31;53633;49.932;10.884;2022-12-11T14:58:19;0.22;78.76
66722;SHT31;53633;49.932;10.884;2022-12-11T15:00:56;0.25;78.50
66722;SHT31;53633;49.932;10.884;2022-12-11T15:03:24;0.17;78.61
66722;SHT31;53633;49.932;10.884;2022-12-11T15:05:56;0.11;78.82
66722;SHT31;53633;49.932;10.884;2022-12-11T15:08:27;0.14;78.59
66722;SHT31;53633;49.932;10.884;2022-12-11T15:11:07;0.10;78.57
66722;SHT31;53633;49.932;10.884;2022-12-11T15:13:36;0.01;78.54
66722;SHT31;53633;49.932;10.884;2022-12-11T15:16:05;0.05;78.00
66722;SHT31;53633;49.932;10.884;2022-12-11T15:18:35;0.02;78.58
66722;SHT31;53633;49.932;10.884;2022-12-11T15:21:03;0.00;78.42
66722;SHT31;53633;49.932;10.884;2022-12-11T15:23:33;-0.03;78.38
66722;SHT31;53633;49.932;10.884;2022-12-11T15:26:02;0.05;77.63
66722;SHT31;53633;49.932;10.884;2022-12-11T15:28:32;0.04;77.46
66722;SHT31;53633;49.932;10.884;2022-12-11T15:31:01;0.05;77.50
66722;SHT31;53633;49.932;10.884;2022-12-11T15:33:29;0.02;77.05
66722;SHT31;53633;49.932;10.884;2022-12-11T15:36:01;0.11;77.02
66722;SHT31;53633;49.932;10.884;2022-12-11T15:38:33;0.02;77.10
66722;SHT31;53633;49.932;10.884;2022-12-11T15:41:01;-0.03;77.53